sensor_id;sensor_type;location;lat;lon;timestamp;temperature;humidity
52765;DHT22;38650;44.536;18.664;2024-01-27T00:01:50;7.80;95.30
52765;DHT22;38650;44.536;18.664;2024-01-27T00:04:16;7.80;95.20
52765;DHT22;38650;44.536;18.664;2024-01-27T00:06:42;7.80;95.80
52765;DHT22;38650;44.536;18.664;2024-01-27T00:09:07;7.80;96.10
52765;DHT22;38650;44.536;18.664;2024-01-27T00:11:33;7.80;94.90
52765;DHT22;38650;44.536;18.664;2024-01-27T00:13:59;7.90;94.50
52765;DHT22;38650;44.536;18.664;2024-01-27T00:16:25;7.90;94.60
52765;DHT22;38650;44.536;18.664;2024-01-27T00:18:51;7.70;97.40
52765;DHT22;38650;44.536;18.664;2024-01-27T00:21:16;7.70;96.50
52765;DHT22;38650;44.536;18.664;2024-01-27T00:23:42;7.80;94.90
52765;DHT22;38650;44.536;18.664;2024-01-27T00:26:08;7.80;95.00
52765;DHT22;38650;44.536;18.664;2024-01-27T00:28:33;7.80;95.20
52765;DHT22;38650;44.536;18.664;2024-01-27T00:30:59;7.80;95.30
52765;DHT22;38650;44.536;18.664;2024-01-27T00:33:25;7.90;95.70
52765;DHT22;38650;44.536;18.664;2024-01-27T00:35:51;8.00;95.30
52765;DHT22;38650;44.536;18.664;2024-01-27T00:38:17;8.00;95.20
52765;DHT22;38650;44.536;18.664;2024-01-27T00:40:43;8.00;95.50
52765;DHT22;38650;44.536;18.664;2024-01-27T00:43:09;8.10;95.50
52765;DHT22;38650;44.536;18.664;2024-01-27T00:45:34;8.10;95.10
52765;DHT22;38650;44.536;18.664;2024-01-27T00:48:00;8.00;95.40
52765;DHT22;38650;44.536;18.664;2024-01-27T00:50:26;8.00;95.80
52765;DHT22;38650;44.536;18.664;2024-01-27T00:52:52;8.00;96.20
52765;DHT22;38650;44.536;18.664;2024-01-27T00:55:18;8.00;96.10
52765;DHT22;38650;44.536;18.664;2024-01-27T00:57:44;8.10;95.80
52765;DHT22;38650;44.536;18.664;2024-01-27T01:00:10;8.20;95.20
52765;DHT22;38650;44.536;18.664;2024-01-27T01:02:36;8.20;94.50
52765;DHT22;38650;44.536;18.664;2024-01-27T01:05:03;8.20;94.80
52765;DHT22;38650;44.536;18.664;2024-01-27T01:07:31;8.20;94.80
52765;DHT22;38650;44.536;18.664;2024-01-27T01:09:57;8.30;94.90
52765;DHT22;38650;44.536;18.664;2024-01-27T01:12:23;8.30;94.50
52765;DHT22;38650;44.536;18.664;2024-01-27T01:14:51;8.40;94.50
52765;DHT22;38650;44.536;18.664;2024-01-27T01:17:16;8.40;94.20
52765;DHT22;38650;44.536;18.664;2024-01-27T01:19:42;8.50;93.90
52765;DHT22;38650;44.536;18.664;2024-01-27T01:22:08;8.50;94.30
52765;DHT22;38650;44.536;18.664;2024-01-27T01:24:33;8.50;94.60
52765;DHT22;38650;44.536;18.664;2024-01-27T01:26:59;8.50;94.60
52765;DHT22;38650;44.536;18.664;2024-01-27T01:29:25;8.50;94.70
52765;DHT22;38650;44.536;18.664;2024-01-27T01:31:52;8.50;95.00
52765;DHT22;38650;44.536;18.664;2024-01-27T01:34:17;8.40;95.70
52765;DHT22;38650;44.536;18.664;2024-01-27T01:36:44;8.40;96.00
52765;DHT22;38650;44.536;18.664;2024-01-27T01:39:11;8.50;96.10
52765;DHT22;38650;44.536;18.664;2024-01-27T01:41:38;8.40;96.40
52765;DHT22;38650;44.536;18.664;2024-01-27T01:44:04;8.40;96.10
52765;DHT22;38650;44.536;18.664;2024-01-27T01:46:30;8.50;96.20
52765;DHT22;38650;44.536;18.664;2024-01-27T01:48:55;8.40;96.10
52765;DHT22;38650;44.536;18.664;2024-01-27T01:51:22;8.50;96.20
52765;DHT22;38650;44.536;18.664;2024-01-27T01:53:48;8.50;96.30
52765;DHT22;38650;44.536;18.664;2024-01-27T01:56:15;8.40;96.40
52765;DHT22;38650;44.536;18.664;2024-01-27T01:58:41;8.40;96.70
52765;DHT22;38650;44.536;18.664;2024-01-27T02:01:07;8.50;97.30
52765;DHT22;38650;44.536;18.664;2024-01-27T02:03:33;8.60;97.60
52765;DHT22;38650;44.536;18.664;2024-01-27T02:05:59;8.50;97.60
52765;DHT22;38650;44.536;18.664;2024-01-27T02:08:24;8.50;97.00
52765;DHT22;38650;44.536;18.664;2024-01-27T02:10:50;8.60;96.20
52765;DHT22;38650;44.536;18.664;2024-01-27T02:13:17;8.60;96.00
52765;DHT22;38650;44.536;18.664;2024-01-27T02:15:46;8.60;96.80
52765;DHT22;38650;44.536;18.664;2024-01-27T02:18:13;8.60;97.50
52765;DHT22;38650;44.536;18.664;2024-01-27T02:20:39;8.50;98.10
52765;DHT22;38650;44.536;18.664;2024-01-27T02:23:05;8.50;98.90
52765;DHT22;38650;44.536;18.664;2024-01-27T02:25:32;8.40;96.70
52765;DHT22;38650;44.536;18.664;2024-01-27T02:27:57;8.70;96.30
52765;DHT22;38650;44.536;18.664;2024-01-27T02:30:23;8.90;94.90
52765;DHT22;38650;44.536;18.664;2024-01-27T02:32:49;9.00;94.10
52765;DHT22;38650;44.536;18.664;2024-01-27T02:35:15;9.10;93.70
52765;DHT22;38650;44.536;18.664;2024-01-27T02:37:41;9.10;93.50
52765;DHT22;38650;44.536;18.664;2024-01-27T02:40:08;9.20;92.30
52765;DHT22;38650;44.536;18.664;2024-01-27T02:42:35;9.20;91.60
52765;DHT22;38650;44.536;18.664;2024-01-27T02:45:01;9.20;91.20
52765;DHT22;38650;44.536;18.664;2024-01-27T02:47:27;9.20;90.50
52765;DHT22;38650;44.536;18.664;2024-01-27T02:49:53;9.30;89.30
52765;DHT22;38650;44.536;18.664;2024-01-27T02:52:19;9.30;86.70
52765;DHT22;38650;44.536;18.664;2024-01-27T02:54:45;9.40;86.90
52765;DHT22;38650;44.536;18.664;2024-01-27T02:57:11;9.40;88.40
52765;DHT22;38650;44.536;18.664;2024-01-27T02:59:37;9.50;84.80
52765;DHT22;38650;44.536;18.664;2024-01-27T03:02:05;9.50;82.30
52765;DHT22;38650;44.536;18.664;2024-01-27T03:04:31;9.50;83.50
52765;DHT22;38650;44.536;18.664;2024-01-27T03:06:56;9.60;78.20
52765;DHT22;38650;44.536;18.664;2024-01-27T03:09:22;9.50;73.70
52765;DHT22;38650;44.536;18.664;2024-01-27T03:11:48;9.40;66.10
52765;DHT22;38650;44.536;18.664;2024-01-27T03:14:13;9.40;63.80
52765;DHT22;38650;44.536;18.664;2024-01-27T03:16:39;9.50;65.00
52765;DHT22;38650;44.536;18.664;2024-01-27T03:19:05;9.50;63.70
52765;DHT22;38650;44.536;18.664;2024-01-27T03:21:32;9.50;63.70
52765;DHT22;38650;44.536;18.664;2024-01-27T03:23:58;9.50;60.40
52765;DHT22;38650;44.536;18.664;2024-01-27T03:26:24;9.50;60.50
52765;DHT22;38650;44.536;18.664;2024-01-27T03:28:50;9.50;59.90
52765;DHT22;38650;44.536;18.664;2024-01-27T03:31:16;9.50;59.70
52765;DHT22;38650;44.536;18.664;2024-01-27T03:33:42;9.50;60.70
52765;DHT22;38650;44.536;18.664;2024-01-27T03:36:11;9.50;61.00
52765;DHT22;38650;44.536;18.664;2024-01-27T03:38:38;9.60;60.10
52765;DHT22;38650;44.536;18.664;2024-01-27T03:41:05;9.60;58.70
52765;DHT22;38650;44.536;18.664;2024-01-27T03:43:31;9.50;58.40
52765;DHT22;38650;44.536;18.664;2024-01-27T03:45:57;9.60;58.00
52765;DHT22;38650;44.536;18.664;2024-01-27T03:48:23;9.60;57.20
52765;DHT22;38650;44.536;18.664;2024-01-27T03:50:48;9.60;57.80
52765;DHT22;38650;44.536;18.664;2024-01-27T03:53:14;9.50;57.80
52765;DHT22;38650;44.536;18.664;2024-01-27T03:55:40;9.50;58.50
52765;DHT22;38650;44.536;18.664;2024-01-27T03:58:06;9.40;58.50
52765;DHT22;38650;44.536;18.664;2024-01-27T04:00:31;9.40;58.30
52765;DHT22;38650;44.536;18.664;2024-01-27T04:03:01;9.40;58.70
52765;DHT22;38650;44.536;18.664;2024-01-27T04:05:29;9.50;60.20
52765;DHT22;38650;44.536;18.664;2024-01-27T04:07:55;9.40;61.70
52765;DHT22;38650;44.536;18.664;2024-01-27T04:10:21;9.40;62.70
52765;DHT22;38650;44.536;18.664;2024-01-27T04:12:47;9.40;60.80
52765;DHT22;38650;44.536;18.664;2024-01-27T04:15:13;9.30;63.60
52765;DHT22;38650;44.536;18.664;2024-01-27T04:17:40;9.30;64.50
52765;DHT22;38650;44.536;18.664;2024-01-27T04:20:07;9.30;65.20
52765;DHT22;38650;44.536;18.664;2024-01-27T04:22:36;9.30;66.30
52765;DHT22;38650;44.536;18.664;2024-01-27T04:25:02;9.10;68.00
52765;DHT22;38650;44.536;18.664;2024-01-27T04:27:29;9.10;68.20
52765;DHT22;38650;44.536;18.664;2024-01-27T04:29:55;9.10;68.30
52765;DHT22;38650;44.536;18.664;2024-01-27T04:32:22;8.90;70.20
52765;DHT22;38650;44.536;18.664;2024-01-27T04:34:49;8.80;70.70
52765;DHT22;38650;44.536;18.664;2024-01-27T04:37:15;8.90;70.40
52765;DHT22;38650;44.536;18.664;2024-01-27T04:39:40;8.90;69.70
52765;DHT22;38650;44.536;18.664;2024-01-27T04:42:06;8.90;69.10
52765;DHT22;38650;44.536;18.664;2024-01-27T04:44:32;8.90;68.70
52765;DHT22;38650;44.536;18.664;2024-01-27T04:46:58;8.90;68.60
52765;DHT22;38650;44.536;18.664;2024-01-27T04:49:25;8.80;68.60
52765;DHT22;38650;44.536;18.664;2024-01-27T04:51:51;8.70;68.90
52765;DHT22;38650;44.536;18.664;2024-01-27T04:54:16;8.70;69.10
52765;DHT22;38650;44.536;18.664;2024-01-27T04:56:42;8.70;68.20
52765;DHT22;38650;44.536;18.664;2024-01-27T04:59:08;8.60;68.20
52765;DHT22;38650;44.536;18.664;2024-01-27T05:01:34;8.60;67.80
52765;DHT22;38650;44.536;18.664;2024-01-27T05:03:59;8.60;68.30
52765;DHT22;38650;44.536;18.664;2024-01-27T05:06:25;8.50;69.10
52765;DHT22;38650;44.536;18.664;2024-01-27T05:08:51;8.50;69.70
52765;DHT22;38650;44.536;18.664;2024-01-27T05:11:29;8.50;68.70
52765;DHT22;38650;44.536;18.664;2024-01-27T05:13:55;8.50;68.50
52765;DHT22;38650;44.536;18.664;2024-01-27T05:16:21;8.50;68.40
52765;DHT22;38650;44.536;18.664;2024-01-27T05:18:46;8.30;71.60
52765;DHT22;38650;44.536;18.664;2024-01-27T05:21:12;7.90;76.50
52765;DHT22;38650;44.536;18.664;2024-01-27T05:23:38;7.50;83.50
52765;DHT22;38650;44.536;18.664;2024-01-27T05:26:06;7.20;86.00
52765;DHT22;38650;44.536;18.664;2024-01-27T05:28:31;7.00;90.00
52765;DHT22;38650;44.536;18.664;2024-01-27T05:30:57;7.10;88.80
52765;DHT22;38650;44.536;18.664;2024-01-27T05:33:23;7.10;90.10
52765;DHT22;38650;44.536;18.664;2024-01-27T05:35:49;6.80;90.90
52765;DHT22;38650;44.536;18.664;2024-01-27T05:38:15;6.60;92.10
52765;DHT22;38650;44.536;18.664;2024-01-27T05:40:41;6.30;94.10
52765;DHT22;38650;44.536;18.664;2024-01-27T05:43:07;6.00;95.60
52765;DHT22;38650;44.536;18.664;2024-01-27T05:45:33;5.90;96.20
52765;DHT22;38650;44.536;18.664;2024-01-27T05:47:59;5.70;96.70
52765;DHT22;38650;44.536;18.664;2024-01-27T05:50:26;5.80;96.30
52765;DHT22;38650;44.536;18.664;2024-01-27T05:52:51;5.90;95.90
52765;DHT22;38650;44.536;18.664;2024-01-27T05:55:18;6.00;95.30
52765;DHT22;38650;44.536;18.664;2024-01-27T05:57:44;6.10;94.30
52765;DHT22;38650;44.536;18.664;2024-01-27T06:00:10;6.20;94.40
52765;DHT22;38650;44.536;18.664;2024-01-27T06:02:36;6.20;94.10
52765;DHT22;38650;44.536;18.664;2024-01-27T06:05:02;6.40;93.30
52765;DHT22;38650;44.536;18.664;2024-01-27T06:07:28;6.50;92.80
52765;DHT22;38650;44.536;18.664;2024-01-27T06:09:53;6.60;91.60
52765;DHT22;38650;44.536;18.664;2024-01-27T06:12:20;6.60;90.80
52765;DHT22;38650;44.536;18.664;2024-01-27T06:14:45;6.70;88.10
52765;DHT22;38650;44.536;18.664;2024-01-27T06:17:12;7.00;82.60
52765;DHT22;38650;44.536;18.664;2024-01-27T06:19:40;7.00;84.80
52765;DHT22;38650;44.536;18.664;2024-01-27T06:22:06;6.80;86.20
52765;DHT22;38650;44.536;18.664;2024-01-27T06:24:32;6.70;86.50
52765;DHT22;38650;44.536;18.664;2024-01-27T06:26:57;6.70;86.50
52765;DHT22;38650;44.536;18.664;2024-01-27T06:29:23;6.70;87.10
52765;DHT22;38650;44.536;18.664;2024-01-27T06:31:50;6.50;89.10
52765;DHT22;38650;44.536;18.664;2024-01-27T06:34:16;6.40;90.40
52765;DHT22;38650;44.536;18.664;2024-01-27T06:36:42;6.30;91.20
52765;DHT22;38650;44.536;18.664;2024-01-27T06:39:08;6.30;90.90
52765;DHT22;38650;44.536;18.664;2024-01-27T06:41:33;6.60;89.60
52765;DHT22;38650;44.536;18.664;2024-01-27T06:43:59;6.70;86.00
52765;DHT22;38650;44.536;18.664;2024-01-27T06:46:24;6.90;83.10
52765;DHT22;38650;44.536;18.664;2024-01-27T06:48:50;6.90;83.30
52765;DHT22;38650;44.536;18.664;2024-01-27T06:51:16;6.70;85.60
52765;DHT22;38650;44.536;18.664;2024-01-27T06:53:42;6.50;88.20
52765;DHT22;38650;44.536;18.664;2024-01-27T06:56:08;6.50;89.00
52765;DHT22;38650;44.536;18.664;2024-01-27T06:58:34;6.40;89.50
52765;DHT22;38650;44.536;18.664;2024-01-27T07:01:00;6.30;90.30
52765;DHT22;38650;44.536;18.664;2024-01-27T07:03:26;6.20;90.60
52765;DHT22;38650;44.536;18.664;2024-01-27T07:05:51;6.10;90.90
52765;DHT22;38650;44.536;18.664;2024-01-27T07:08:17;6.20;90.80
52765;DHT22;38650;44.536;18.664;2024-01-27T07:10:43;6.30;90.20
52765;DHT22;38650;44.536;18.664;2024-01-27T07:13:08;6.40;90.40
52765;DHT22;38650;44.536;18.664;2024-01-27T07:15:34;6.40;90.00
52765;DHT22;38650;44.536;18.664;2024-01-27T07:18:03;6.50;88.80
52765;DHT22;38650;44.536;18.664;2024-01-27T07:20:28;6.60;86.60
52765;DHT22;38650;44.536;18.664;2024-01-27T07:22:54;6.70;84.70
52765;DHT22;38650;44.536;18.664;2024-01-27T07:25:20;6.80;84.70
52765;DHT22;38650;44.536;18.664;2024-01-27T07:27:46;6.90;82.00
52765;DHT22;38650;44.536;18.664;2024-01-27T07:30:11;7.00;80.50
52765;DHT22;38650;44.536;18.664;2024-01-27T07:32:37;7.10;79.50
52765;DHT22;38650;44.536;18.664;2024-01-27T07:35:04;6.90;80.20
52765;DHT22;38650;44.536;18.664;2024-01-27T07:37:31;7.10;76.80
52765;DHT22;38650;44.536;18.664;2024-01-27T07:39:56;7.50;73.50
52765;DHT22;38650;44.536;18.664;2024-01-27T07:42:22;8.10;68.10
52765;DHT22;38650;44.536;18.664;2024-01-27T07:44:48;8.70;60.50
52765;DHT22;38650;44.536;18.664;2024-01-27T07:47:14;9.70;56.70
52765;DHT22;38650;44.536;18.664;2024-01-27T07:49:40;11.10;53.70
52765;DHT22;38650;44.536;18.664;2024-01-27T07:52:06;14.00;48.40
52765;DHT22;38650;44.536;18.664;2024-01-27T07:54:32;16.20;41.20
52765;DHT22;38650;44.536;18.664;2024-01-27T07:56:59;18.70;36.90
52765;DHT22;38650;44.536;18.664;2024-01-27T07:59:25;20.60;32.30
52765;DHT22;38650;44.536;18.664;2024-01-27T08:01:50;22.20;30.60
52765;DHT22;38650;44.536;18.664;2024-01-27T08:04:16;22.90;27.10
52765;DHT22;38650;44.536;18.664;2024-01-27T08:06:49;22.90;27.30
52765;DHT22;38650;44.536;18.664;2024-01-27T08:09:16;22.50;26.10
52765;DHT22;38650;44.536;18.664;2024-01-27T08:11:43;22.90;26.70
52765;DHT22;38650;44.536;18.664;2024-01-27T08:14:09;23.10;26.20
52765;DHT22;38650;44.536;18.664;2024-01-27T08:16:35;23.20;26.00
52765;DHT22;38650;44.536;18.664;2024-01-27T08:19:01;23.70;26.40
52765;DHT22;38650;44.536;18.664;2024-01-27T08:21:27;23.70;24.90
52765;DHT22;38650;44.536;18.664;2024-01-27T08:23:53;22.80;26.10
52765;DHT22;38650;44.536;18.664;2024-01-27T08:26:19;23.10;25.30
52765;DHT22;38650;44.536;18.664;2024-01-27T08:28:46;23.70;25.70
52765;DHT22;38650;44.536;18.664;2024-01-27T08:31:12;25.00;24.70
52765;DHT22;38650;44.536;18.664;2024-01-27T08:33:38;25.30;24.20
52765;DHT22;38650;44.536;18.664;2024-01-27T08:36:04;25.90;23.60
52765;DHT22;38650;44.536;18.664;2024-01-27T08:38:30;26.30;23.20
52765;DHT22;38650;44.536;18.664;2024-01-27T08:40:56;25.90;22.40
52765;DHT22;38650;44.536;18.664;2024-01-27T08:43:22;25.30;22.00
52765;DHT22;38650;44.536;18.664;2024-01-27T08:45:48;25.60;23.10
52765;DHT22;38650;44.536;18.664;2024-01-27T08:48:13;26.00;22.60
52765;DHT22;38650;44.536;18.664;2024-01-27T08:50:40;26.10;22.40
52765;DHT22;38650;44.536;18.664;2024-01-27T08:53:06;26.00;21.70
52765;DHT22;38650;44.536;18.664;2024-01-27T08:55:32;25.80;23.00
52765;DHT22;38650;44.536;18.664;2024-01-27T08:57:57;26.00;22.10
52765;DHT22;38650;44.536;18.664;2024-01-27T09:00:23;25.30;21.90
52765;DHT22;38650;44.536;18.664;2024-01-27T09:02:49;24.80;22.90
52765;DHT22;38650;44.536;18.664;2024-01-27T09:05:15;24.20;22.80
52765;DHT22;38650;44.536;18.664;2024-01-27T09:07:41;23.10;22.90
52765;DHT22;38650;44.536;18.664;2024-01-27T09:10:07;21.90;23.90
52765;DHT22;38650;44.536;18.664;2024-01-27T09:12:33;22.20;25.00
52765;DHT22;38650;44.536;18.664;2024-01-27T09:14:59;22.30;23.60
52765;DHT22;38650;44.536;18.664;2024-01-27T09:17:24;21.70;24.80
52765;DHT22;38650;44.536;18.664;2024-01-27T09:19:51;21.50;24.70
52765;DHT22;38650;44.536;18.664;2024-01-27T09:22:17;21.00;25.10
52765;DHT22;38650;44.536;18.664;2024-01-27T09:24:43;20.00;25.10
52765;DHT22;38650;44.536;18.664;2024-01-27T09:27:09;19.80;26.60
52765;DHT22;38650;44.536;18.664;2024-01-27T09:29:35;20.00;25.50
52765;DHT22;38650;44.536;18.664;2024-01-27T09:32:00;20.30;26.30
52765;DHT22;38650;44.536;18.664;2024-01-27T09:34:26;20.50;25.90
52765;DHT22;38650;44.536;18.664;2024-01-27T09:36:53;20.60;25.10
52765;DHT22;38650;44.536;18.664;2024-01-27T09:39:18;20.00;25.60
52765;DHT22;38650;44.536;18.664;2024-01-27T09:41:45;20.00;26.10
52765;DHT22;38650;44.536;18.664;2024-01-27T09:44:12;19.90;25.60
52765;DHT22;38650;44.536;18.664;2024-01-27T09:46:40;19.80;25.80
52765;DHT22;38650;44.536;18.664;2024-01-27T09:49:08;19.80;25.90
52765;DHT22;38650;44.536;18.664;2024-01-27T09:51:34;19.80;25.60
52765;DHT22;38650;44.536;18.664;2024-01-27T09:54:00;19.70;25.70
52765;DHT22;38650;44.536;18.664;2024-01-27T09:56:26;19.40;26.40
52765;DHT22;38650;44.536;18.664;2024-01-27T09:58:52;19.30;26.40
52765;DHT22;38650;44.536;18.664;2024-01-27T10:01:21;19.50;25.70
52765;DHT22;38650;44.536;18.664;2024-01-27T10:03:49;19.10;26.60
52765;DHT22;38650;44.536;18.664;2024-01-27T10:06:15;18.90;27.00
52765;DHT22;38650;44.536;18.664;2024-01-27T10:08:41;19.20;27.30
52765;DHT22;38650;44.536;18.664;2024-01-27T10:11:09;19.30;27.20
52765;DHT22;38650;44.536;18.664;2024-01-27T10:13:36;19.60;26.00
52765;DHT22;38650;44.536;18.664;2024-01-27T10:16:08;19.50;26.30
52765;DHT22;38650;44.536;18.664;2024-01-27T10:18:35;19.50;26.40
52765;DHT22;38650;44.536;18.664;2024-01-27T10:21:15;19.70;25.90
52765;DHT22;38650;44.536;18.664;2024-01-27T10:23:41;19.90;25.80
52765;DHT22;38650;44.536;18.664;2024-01-27T10:26:11;19.80;25.90
52765;DHT22;38650;44.536;18.664;2024-01-27T10:28:37;19.90;26.40
52765;DHT22;38650;44.536;18.664;2024-01-27T10:31:11;19.80;26.60
52765;DHT22;38650;44.536;18.664;2024-01-27T10:33:37;19.90;26.60
52765;DHT22;38650;44.536;18.664;2024-01-27T10:36:04;20.00;26.20
52765;DHT22;38650;44.536;18.664;2024-01-27T10:38:39;19.90;25.80
52765;DHT22;38650;44.536;18.664;2024-01-27T10:41:08;19.90;25.80
52765;DHT22;38650;44.536;18.664;2024-01-27T10:43:39;19.90;27.30
52765;DHT22;38650;44.536;18.664;2024-01-27T10:46:07;19.90;26.40
52765;DHT22;38650;44.536;18.664;2024-01-27T10:48:37;20.10;25.80
52765;DHT22;38650;44.536;18.664;2024-01-27T10:51:09;20.30;26.20
52765;DHT22;38650;44.536;18.664;2024-01-27T10:53:36;20.30;26.70
52765;DHT22;38650;44.536;18.664;2024-01-27T10:56:05;20.10;25.20
52765;DHT22;38650;44.536;18.664;2024-01-27T10:58:35;20.20;26.30
52765;DHT22;38650;44.536;18.664;2024-01-27T11:01:11;20.10;26.10
52765;DHT22;38650;44.536;18.664;2024-01-27T11:03:40;20.00;27.20
52765;DHT22;38650;44.536;18.664;2024-01-27T11:06:07;20.20;26.70
52765;DHT22;38650;44.536;18.664;2024-01-27T11:08:37;20.30;25.80
52765;DHT22;38650;44.536;18.664;2024-01-27T11:11:03;20.40;26.60
52765;DHT22;38650;44.536;18.664;2024-01-27T11:13:33;20.30;26.50
52765;DHT22;38650;44.536;18.664;2024-01-27T11:15:59;20.30;26.10
52765;DHT22;38650;44.536;18.664;2024-01-27T11:18:25;19.70;26.30
52765;DHT22;38650;44.536;18.664;2024-01-27T11:20:55;19.60;27.00
52765;DHT22;38650;44.536;18.664;2024-01-27T11:23:31;19.70;26.80
52765;DHT22;38650;44.536;18.664;2024-01-27T11:26:07;19.70;26.20
52765;DHT22;38650;44.536;18.664;2024-01-27T11:28:33;20.00;26.90
52765;DHT22;38650;44.536;18.664;2024-01-27T11:31:04;19.60;26.50
52765;DHT22;38650;44.536;18.664;2024-01-27T11:33:30;19.20;28.20
52765;DHT22;38650;44.536;18.664;2024-01-27T11:36:05;19.20;28.30
52765;DHT22;38650;44.536;18.664;2024-01-27T11:38:32;19.40;28.40
52765;DHT22;38650;44.536;18.664;2024-01-27T11:41:01;19.40;27.60
52765;DHT22;38650;44.536;18.664;2024-01-27T11:43:27;18.80;27.10
52765;DHT22;38650;44.536;18.664;2024-01-27T11:45:59;18.50;27.80
52765;DHT22;38650;44.536;18.664;2024-01-27T11:48:25;18.50;27.10
52765;DHT22;38650;44.536;18.664;2024-01-27T11:51:10;18.40;28.10
52765;DHT22;38650;44.536;18.664;2024-01-27T11:53:36;18.20;28.60
52765;DHT22;38650;44.536;18.664;2024-01-27T11:56:03;18.50;29.20
52765;DHT22;38650;44.536;18.664;2024-01-27T11:58:29;18.10;28.30
52765;DHT22;38650;44.536;18.664;2024-01-27T12:00:58;18.10;28.70
52765;DHT22;38650;44.536;18.664;2024-01-27T12:03:25;18.00;27.90
52765;DHT22;38650;44.536;18.664;2024-01-27T12:05:51;17.70;28.70
52765;DHT22;38650;44.536;18.664;2024-01-27T12:08:19;17.80;29.00
52765;DHT22;38650;44.536;18.664;2024-01-27T12:10:45;17.80;29.20
52765;DHT22;38650;44.536;18.664;2024-01-27T12:13:11;17.70;29.70
52765;DHT22;38650;44.536;18.664;2024-01-27T12:15:37;17.80;28.80
52765;DHT22;38650;44.536;18.664;2024-01-27T12:18:04;17.70;28.70
52765;DHT22;38650;44.536;18.664;2024-01-27T12:20:30;17.80;29.30
52765;DHT22;38650;44.536;18.664;2024-01-27T12:23:03;17.70;29.10
52765;DHT22;38650;44.536;18.664;2024-01-27T12:25:29;17.50;29.00
52765;DHT22;38650;44.536;18.664;2024-01-27T12:27:54;17.40;29.20
52765;DHT22;38650;44.536;18.664;2024-01-27T12:30:21;17.60;28.50
52765;DHT22;38650;44.536;18.664;2024-01-27T12:32:47;17.90;28.40
52765;DHT22;38650;44.536;18.664;2024-01-27T12:35:13;18.00;28.50
52765;DHT22;38650;44.536;18.664;2024-01-27T12:37:39;17.90;28.30
52765;DHT22;38650;44.536;18.664;2024-01-27T12:40:21;18.00;29.20
52765;DHT22;38650;44.536;18.664;2024-01-27T12:42:47;18.10;29.00
52765;DHT22;38650;44.536;18.664;2024-01-27T12:45:13;18.30;29.30
52765;DHT22;38650;44.536;18.664;2024-01-27T12:47:40;18.30;28.70
52765;DHT22;38650;44.536;18.664;2024-01-27T12:50:06;18.30;28.70
52765;DHT22;38650;44.536;18.664;2024-01-27T12:52:33;18.40;27.90
52765;DHT22;38650;44.536;18.664;2024-01-27T12:54:58;18.40;27.40
52765;DHT22;38650;44.536;18.664;2024-01-27T12:57:24;18.00;27.60
52765;DHT22;38650;44.536;18.664;2024-01-27T12:59:50;18.20;27.80
52765;DHT22;38650;44.536;18.664;2024-01-27T13:02:15;18.40;27.60
52765;DHT22;38650;44.536;18.664;2024-01-27T13:04:41;18.30;28.00
52765;DHT22;38650;44.536;18.664;2024-01-27T13:07:07;18.20;28.00
52765;DHT22;38650;44.536;18.664;2024-01-27T13:09:34;17.90;27.20
52765;DHT22;38650;44.536;18.664;2024-01-27T13:12:00;17.50;27.90
52765;DHT22;38650;44.536;18.664;2024-01-27T13:14:26;17.50;27.80
52765;DHT22;38650;44.536;18.664;2024-01-27T13:16:51;17.50;27.30
52765;DHT22;38650;44.536;18.664;2024-01-27T13:19:20;17.90;26.90
52765;DHT22;38650;44.536;18.664;2024-01-27T13:21:45;18.00;27.10
52765;DHT22;38650;44.536;18.664;2024-01-27T13:24:11;18.00;27.00
52765;DHT22;38650;44.536;18.664;2024-01-27T13:26:37;18.00;25.90
52765;DHT22;38650;44.536;18.664;2024-01-27T13:29:04;17.50;26.00
52765;DHT22;38650;44.536;18.664;2024-01-27T13:31:30;17.50;25.90
52765;DHT22;38650;44.536;18.664;2024-01-27T13:33:57;17.80;26.70
52765;DHT22;38650;44.536;18.664;2024-01-27T13:36:23;17.90;25.50
52765;DHT22;38650;44.536;18.664;2024-01-27T13:38:49;17.70;25.60
52765;DHT22;38650;44.536;18.664;2024-01-27T13:41:14;17.60;25.30
52765;DHT22;38650;44.536;18.664;2024-01-27T13:43:41;17.40;26.00
52765;DHT22;38650;44.536;18.664;2024-01-27T13:46:07;17.10;26.60
52765;DHT22;38650;44.536;18.664;2024-01-27T13:48:33;17.00;26.70
52765;DHT22;38650;44.536;18.664;2024-01-27T13:50:59;17.00;27.50
52765;DHT22;38650;44.536;18.664;2024-01-27T13:53:25;17.00;26.90
52765;DHT22;38650;44.536;18.664;2024-01-27T13:55:50;17.10;27.10
52765;DHT22;38650;44.536;18.664;2024-01-27T13:58:18;17.30;27.20
52765;DHT22;38650;44.536;18.664;2024-01-27T14:00:43;17.30;25.80
52765;DHT22;38650;44.536;18.664;2024-01-27T14:03:09;17.80;26.50
52765;DHT22;38650;44.536;18.664;2024-01-27T14:05:35;17.80;25.80
52765;DHT22;38650;44.536;18.664;2024-01-27T14:08:00;17.80;24.50
52765;DHT22;38650;44.536;18.664;2024-01-27T14:10:27;17.90;24.20
52765;DHT22;38650;44.536;18.664;2024-01-27T14:12:52;17.60;25.30
52765;DHT22;38650;44.536;18.664;2024-01-27T14:15:18;17.50;24.80
52765;DHT22;38650;44.536;18.664;2024-01-27T14:17:44;17.50;24.00
52765;DHT22;38650;44.536;18.664;2024-01-27T14:20:11;17.60;25.00
52765;DHT22;38650;44.536;18.664;2024-01-27T14:22:37;17.40;25.20
52765;DHT22;38650;44.536;18.664;2024-01-27T14:25:03;17.20;25.20
52765;DHT22;38650;44.536;18.664;2024-01-27T14:27:30;17.50;24.80
52765;DHT22;38650;44.536;18.664;2024-01-27T14:29:56;17.40;25.30
52765;DHT22;38650;44.536;18.664;2024-01-27T14:32:22;17.10;24.50
52765;DHT22;38650;44.536;18.664;2024-01-27T14:34:48;17.00;24.60
52765;DHT22;38650;44.536;18.664;2024-01-27T14:37:15;17.20;24.40
52765;DHT22;38650;44.536;18.664;2024-01-27T14:39:43;17.10;23.80
52765;DHT22;38650;44.536;18.664;2024-01-27T14:42:12;17.10;23.70
52765;DHT22;38650;44.536;18.664;2024-01-27T14:44:38;17.20;23.90
52765;DHT22;38650;44.536;18.664;2024-01-27T14:47:05;17.20;23.50
52765;DHT22;38650;44.536;18.664;2024-01-27T14:49:32;17.10;24.10
52765;DHT22;38650;44.536;18.664;2024-01-27T14:51:58;17.30;22.90
52765;DHT22;38650;44.536;18.664;2024-01-27T14:54:24;17.10;22.80
52765;DHT22;38650;44.536;18.664;2024-01-27T14:56:49;16.80;23.00
52765;DHT22;38650;44.536;18.664;2024-01-27T14:59:15;16.80;22.50
52765;DHT22;38650;44.536;18.664;2024-01-27T15:01:41;16.90;23.50
52765;DHT22;38650;44.536;18.664;2024-01-27T15:04:07;16.80;23.40
52765;DHT22;38650;44.536;18.664;2024-01-27T15:06:33;16.50;24.00
52765;DHT22;38650;44.536;18.664;2024-01-27T15:08:59;16.30;24.30
52765;DHT22;38650;44.536;18.664;2024-01-27T15:11:25;16.10;24.40
52765;DHT22;38650;44.536;18.664;2024-01-27T15:13:51;16.00;24.00
52765;DHT22;38650;44.536;18.664;2024-01-27T15:16:16;15.70;24.10
52765;DHT22;38650;44.536;18.664;2024-01-27T15:18:42;15.40;23.80